Startpagina
METAR-TAF:

METAR-TAF

Vliegvelden :

Koeweit, Koeweit

breedte: 29-13N, lengte: 047-59E, hoogte: 55 m

Actueel weer

Dit bericht is 31 minuten geleden gemaakt, om 16:00 UTC
Wind 12 kt uit het noordnoordwesten
Temperatuur 40°C
Vochtigheid 15%
Druk 998 hPa
Zicht: 8000 m
Onbewolkt
(lichte) Heiigheid

METAR: OKBK 171600Z 33012KT 8000 -HZ SKC 40/08 Q0998 NOSIG

Tijdstip: 19:31 (16:31 UTC)

Verwachting

Dit bericht is 5 uur en het 46 minuten geleden gemaakt, om 10:45 UTC
Verwachting geldig van 17 om 12 UTC tot 18 om 18 UTC
Wind 15 kt uit het noordnoordwesten met uitschieters tot 30 kt
Zicht: 7000 m
Tijdelijke
van 17 om 12 UTC tot 17 om 18 UTC
Zicht: 3000 m
Stuifstof

TAF: OKBK 171045Z 1712/1818 33015G30KT 7000 NSC TEMPO 1712/1718 3000 BLDU

Waarnemingen en weersverwachtingen van meer dan 4000 vliegvelden (METAR en TAF).

De beschikbare stations zijn de gele en rode punten op de kaart.

Ga met uw muis naar het station om de naam te zien.

Klik dan om waarnemingen en weersverwachtingen te zien.

kaart wijzigen: klik op de groene knoppen met een zwart kruis om in te zoomen, op de groene knop met een streepje om uit te zoomen of op de groene pijlen voor aangrenzende kaarten.


METAR-TAF: